Time;durP1;ratioP1;P1;durP2;ratioP2;P2;SDS_P1;SDS_P2;PMS_P1;PMS_P2;Temp;Humidity;BMP_temperature;BMP_pressure;BME280_temperature;BME280_humidity;BME280_pressure;Samples;Min_cycle;Max_cycle;Signal;HPM_P1;HPM_P2
2021/05/31 00:00:35;;;;;;;56.25;3.38;;;19.20;99.90;;;;;;5083400;28;20042;-79
2021/05/31 00:03:01;;;;;;;46.63;3.97;;;19.30;99.90;;;;;;5095045;28;20030;-79
2021/05/31 00:05:27;;;;;;;37.92;3.05;;;19.20;99.90;;;;;;5091462;28;20028;-79
2021/05/31 00:07:54;;;;;;;51.60;3.30;;;19.20;99.90;;;;;;5082446;28;20541;-79
2021/05/31 00:10:22;;;;;;;51.38;3.95;;;19.20;99.90;;;;;;5088272;28;20043;-79
2021/05/31 00:12:49;;;;;;;79.57;4.65;;;19.20;99.90;;;;;;5095255;28;20063;-79
2021/05/31 00:15:15;;;;;;;42.72;4.43;;;19.00;99.90;;;;;;5090873;28;20040;-81
2021/05/31 00:17:41;;;;;;;18.60;2.40;;;18.80;99.90;;;;;;5083332;28;20024;-81
2021/05/31 00:20:08;;;;;;;8.90;3.10;;;18.70;99.90;;;;;;5076580;28;20107;-81
2021/05/31 00:22:35;;;;;;;33.08;3.08;;;18.60;99.90;;;;;;5088253;28;20024;-82
2021/05/31 00:25:00;;;;;;;36.22;3.65;;;18.50;99.90;;;;;;5094257;28;20118;-81
2021/05/31 00:27:26;;;;;;;10.90;3.13;;;18.50;99.90;;;;;;5093644;28;20505;-79
2021/05/31 00:29:52;;;;;;;4.70;3.00;;;18.60;99.90;;;;;;5087404;28;20040;-79
2021/05/31 00:32:19;;;;;;;5.20;3.30;;;18.60;99.90;;;;;;5082831;28;20099;-79
2021/05/31 00:34:44;;;;;;;5.93;2.88;;;18.60;99.90;;;;;;5074852;28;20428;-79
2021/05/31 00:37:10;;;;;;;21.45;3.22;;;18.60;99.90;;;;;;5074357;28;20035;-79
2021/05/31 00:39:36;;;;;;;20.88;2.33;;;18.60;99.90;;;;;;5074755;28;20498;-79
2021/05/31 00:42:02;;;;;;;23.15;2.88;;;18.60;99.90;;;;;;5074381;28;20393;-81
2021/05/31 00:44:28;;;;;;;25.83;3.13;;;18.60;99.90;;;;;;5075745;28;20040;-81
2021/05/31 00:46:54;;;;;;;24.27;2.50;;;18.50;99.90;;;;;;5081662;28;20078;-81
2021/05/31 00:49:22;;;;;;;11.57;2.03;;;18.50;99.90;;;;;;5085171;28;20054;-81
2021/05/31 00:51:50;;;;;;;3.08;2.28;;;18.50;99.90;;;;;;5076258;28;20036;-81
2021/05/31 00:54:17;;;;;;;2.15;2.05;;;18.60;99.90;;;;;;5093982;28;20105;-81
2021/05/31 00:56:44;;;;;;;9.48;2.28;;;18.50;99.90;;;;;;5093689;28;20023;-81
2021/05/31 00:59:11;;;;;;;9.73;2.40;;;18.60;99.90;;;;;;5080473;28;20029;-81
2021/05/31 01:01:37;;;;;;;20.23;2.75;;;18.60;99.90;;;;;;5072761;28;20405;-82
2021/05/31 01:04:03;;;;;;;99.07;6.55;;;18.40;99.90;;;;;;5075951;28;20100;-81
2021/05/31 01:06:35;;;;;;;87.25;4.15;;;18.40;99.90;;;;;;5091935;28;20069;-78
2021/05/31 01:09:11;;;;;;;111.65;6.07;;;18.40;99.90;;;;;;5091663;28;20519;-78
2021/05/31 01:12:07;;;;;;;73.43;4.10;;;18.40;99.90;;;;;;5086609;28;20381;-79
2021/05/31 01:14:58;;;;;;;56.42;3.70;;;18.20;99.90;;;;;;5073829;28;20161;-81
2021/05/31 01:17:41;;;;;;;41.88;3.80;;;18.20;99.90;;;;;;5073568;28;20024;-81
2021/05/31 01:20:28;;;;;;;62.88;4.35;;;18.20;99.90;;;;;;5085640;28;20056;-81
2021/05/31 01:22:54;;;;;;;42.95;3.85;;;18.10;99.90;;;;;;5089940;28;20027;-81
2021/05/31 01:25:33;;;;;;;38.35;3.50;;;18.10;99.90;;;;;;5087603;28;20489;-81
2021/05/31 01:28:11;;;;;;;57.95;3.65;;;18.40;99.90;;;;;;5074884;28;20032;-81
2021/05/31 01:30:42;;;;;;;42.97;4.22;;;18.40;99.90;;;;;;5093128;28;20031;-81
2021/05/31 01:33:16;;;;;;;82.15;4.20;;;18.40;99.90;;;;;;5080711;28;20511;-81
2021/05/31 01:35:43;;;;;;;78.68;3.80;;;18.40;99.90;;;;;;5073551;28;20030;-81
2021/05/31 01:38:10;;;;;;;60.70;3.85;;;18.40;99.90;;;;;;5084863;28;20042;-79
2021/05/31 01:40:38;;;;;;;71.13;4.15;;;18.30;99.90;;;;;;5080710;28;20028;-79
2021/05/31 01:43:04;;;;;;;44.90;3.20;;;18.30;99.90;;;;;;5073379;28;20044;-79
2021/05/31 01:45:31;;;;;;;67.60;3.65;;;18.50;99.90;;;;;;5088499;28;20048;-79
2021/05/31 01:47:58;;;;;;;58.70;2.78;;;18.40;99.90;;;;;;5093869;28;20024;-79
2021/05/31 01:50:27;;;;;;;22.55;2.85;;;18.30;99.90;;;;;;5092719;28;20447;-79
2021/05/31 01:52:53;;;;;;;30.75;2.90;;;18.30;99.90;;;;;;5092663;28;20101;-79
2021/05/31 01:55:21;;;;;;;26.08;3.60;;;18.30;99.90;;;;;;5089916;28;20111;-79
2021/05/31 01:57:48;;;;;;;22.55;3.42;;;18.30;99.90;;;;;;5092018;28;20016;-79
2021/05/31 02:00:16;;;;;;;15.32;3.55;;;18.20;99.90;;;;;;5088112;28;20031;-81
2021/05/31 02:02:42;;;;;;;28.50;2.90;;;18.10;99.90;;;;;;5077187;28;20424;-79
2021/05/31 02:05:10;;;;;;;15.15;2.95;;;18.00;99.90;;;;;;5073028;28;20029;-79
2021/05/31 02:07:38;;;;;;;28.02;2.75;;;17.80;99.90;;;;;;5072832;28;20016;-79
2021/05/31 02:10:06;;;;;;;15.27;2.70;;;17.70;99.90;;;;;;5073023;28;20048;-79
2021/05/31 02:12:50;;;;;;;13.55;2.60;;;17.70;99.90;;;;;;5079812;28;20063;-79
2021/05/31 02:15:27;;;;;;;16.00;2.60;;;17.70;99.90;;;;;;5092335;28;20040;-79
2021/05/31 02:17:54;;;;;;;11.90;2.03;;;17.80;99.90;;;;;;5091267;28;20077;-79
2021/05/31 02:20:21;;;;;;;3.35;2.20;;;17.70;99.90;;;;;;5079489;28;20020;-79
2021/05/31 02:22:51;;;;;;;8.32;2.70;;;17.60;99.90;;;;;;5075941;28;20020;-79
2021/05/31 02:25:17;;;;;;;2.70;2.50;;;17.50;99.90;;;;;;5072362;28;20073;-79
2021/05/31 02:27:45;;;;;;;2.78;2.15;;;17.60;99.90;;;;;;5085050;28;20107;-79
2021/05/31 02:30:13;;;;;;;2.90;2.42;;;17.60;99.90;;;;;;5072408;28;20036;-79
2021/05/31 02:32:50;;;;;;;4.47;2.78;;;17.60;99.90;;;;;;5071217;28;20020;-79
2021/05/31 02:35:16;;;;;;;3.72;3.42;;;17.60;99.90;;;;;;5072380;28;20025;-79
2021/05/31 02:37:42;;;;;;;5.05;3.38;;;17.70;99.90;;;;;;5078986;28;20035;-79
2021/05/31 02:40:09;;;;;;;5.43;3.80;;;17.70;99.90;;;;;;5082791;28;20029;-79
2021/05/31 02:42:40;;;;;;;6.65;4.43;;;17.70;99.90;;;;;;5081857;28;20099;-79
2021/05/31 02:45:07;;;;;;;4.53;2.65;;;17.80;99.90;;;;;;5071852;28;20050;-79
2021/05/31 02:47:33;;;;;;;2.50;2.30;;;17.80;99.90;;;;;;5071384;28;20103;-79
2021/05/31 02:49:59;;;;;;;3.10;2.75;;;17.60;99.90;;;;;;5076084;28;20127;-79
2021/05/31 02:52:24;;;;;;;4.18;2.38;;;17.50;99.90;;;;;;5078580;28;20020;-79
2021/05/31 02:54:50;;;;;;;2.42;2.22;;;17.40;99.90;;;;;;5086649;28;20038;-79
2021/05/31 02:57:18;;;;;;;3.83;2.92;;;17.20;99.90;;;;;;5091912;28;20031;-81
2021/05/31 02:59:44;;;;;;;4.60;2.75;;;17.30;99.90;;;;;;5071880;28;20032;-81
2021/05/31 03:02:10;;;;;;;6.40;2.80;;;17.30;99.90;;;;;;5072033;28;20036;-79
2021/05/31 03:04:36;;;;;;;3.00;2.80;;;17.30;99.90;;;;;;5071646;28;20391;-79
2021/05/31 03:07:02;;;;;;;2.58;2.38;;;17.20;99.90;;;;;;5070666;28;20040;-79
2021/05/31 03:09:27;;;;;;;2.67;2.47;;;17.20;99.90;;;;;;5071813;28;20504;-79
2021/05/31 03:11:53;;;;;;;6.13;2.72;;;17.10;99.90;;;;;;5071486;28;20180;-79
2021/05/31 03:14:19;;;;;;;3.20;2.95;;;17.10;99.90;;;;;;5070574;28;20486;-79
2021/05/31 03:16:44;;;;;;;4.97;3.38;;;17.20;99.90;;;;;;5071591;28;20493;-79
2021/05/31 03:19:10;;;;;;;2.55;2.17;;;17.20;99.90;;;;;;5077300;28;20028;-79
2021/05/31 03:21:36;;;;;;;3.17;2.30;;;17.00;99.90;;;;;;5071697;28;20020;-79
2021/05/31 03:24:02;;;;;;;3.25;2.20;;;16.80;99.90;;;;;;5086153;28;20032;-79
2021/05/31 03:26:28;;;;;;;2.60;2.40;;;16.70;99.90;;;;;;5083580;28;20032;-79
2021/05/31 03:28:54;;;;;;;3.58;2.55;;;16.60;99.90;;;;;;5079313;28;20040;-79
2021/05/31 03:31:19;;;;;;;2.92;2.72;;;16.60;99.90;;;;;;5076506;28;20027;-79
2021/05/31 03:33:45;;;;;;;5.30;2.75;;;16.60;99.90;;;;;;5089456;28;20035;-79
2021/05/31 03:36:11;;;;;;;2.70;2.25;;;16.60;99.90;;;;;;5086285;28;20618;-79
2021/05/31 03:38:36;;;;;;;4.20;2.58;;;16.70;99.90;;;;;;5085807;28;20100;-79
2021/05/31 03:41:02;;;;;;;2.40;2.20;;;16.60;99.90;;;;;;5091540;28;20027;-79
2021/05/31 03:43:28;;;;;;;8.32;2.63;;;16.60;99.90;;;;;;5090588;28;20370;-79
2021/05/31 03:45:54;;;;;;;4.40;2.53;;;16.40;99.90;;;;;;5071263;28;20417;-79
2021/05/31 03:48:19;;;;;;;2.58;2.38;;;16.50;99.90;;;;;;5071816;28;20040;-79
2021/05/31 03:50:45;;;;;;;4.35;2.40;;;16.40;99.90;;;;;;5069131;28;20043;-79
2021/05/31 03:53:11;;;;;;;3.58;2.53;;;16.10;99.90;;;;;;5080205;28;20119;-79
2021/05/31 03:55:37;;;;;;;4.78;2.30;;;16.30;99.90;;;;;;5076896;28;20067;-79
2021/05/31 03:58:02;;;;;;;9.90;2.53;;;16.40;99.90;;;;;;5079055;28;20072;-79
2021/05/31 04:00:28;;;;;;;8.98;2.95;;;16.60;99.90;;;;;;5072843;28;20494;-79
2021/05/31 04:02:55;;;;;;;9.85;3.42;;;16.50;99.90;;;;;;5083559;28;20031;-79
2021/05/31 04:05:22;;;;;;;25.58;4.10;;;16.50;99.90;;;;;;5082805;28;20039;-79
2021/05/31 04:13:18;;;;;;;69.45;4.82;;;16.50;99.90;;;;;;5071543;28;20048;-79
2021/05/31 04:15:44;;;;;;;90.18;4.53;;;16.50;99.90;;;;;;5071309;28;20067;-79
2021/05/31 04:18:10;;;;;;;124.78;5.43;;;16.40;99.90;;;;;;5079256;28;20053;-79
2021/05/31 04:20:36;;;;;;;203.63;6.93;;;16.40;99.90;;;;;;5082809;28;20048;-79
2021/05/31 04:23:03;;;;;;;169.70;6.72;;;16.40;99.90;;;;;;5080462;28;20039;-79
2021/05/31 04:25:29;;;;;;;154.10;5.45;;;16.50;99.90;;;;;;5078800;28;20042;-79
2021/05/31 04:27:55;;;;;;;95.20;4.38;;;16.60;99.90;;;;;;5079327;28;20032;-79
2021/05/31 04:30:21;;;;;;;104.60;3.97;;;16.50;99.90;;;;;;5077875;28;20039;-78
2021/05/31 04:32:47;;;;;;;110.93;4.53;;;16.60;99.90;;;;;;5076222;28;20039;-79
2021/05/31 04:35:13;;;;;;;90.13;4.38;;;16.50;99.90;;;;;;5079152;28;20032;-79
2021/05/31 04:37:39;;;;;;;90.60;4.63;;;16.50;99.90;;;;;;5086680;28;20382;-79
2021/05/31 04:40:06;;;;;;;76.30;3.72;;;16.40;99.90;;;;;;5080650;28;20043;-79
2021/05/31 04:42:32;;;;;;;79.03;3.70;;;16.40;99.90;;;;;;5080189;28;20464;-79
2021/05/31 04:44:58;;;;;;;62.88;3.20;;;16.30;99.90;;;;;;5082725;28;20071;-80
2021/05/31 04:47:23;;;;;;;34.42;2.53;;;16.20;99.90;;;;;;5083112;28;20062;-79
2021/05/31 04:49:49;;;;;;;59.90;3.00;;;16.30;99.90;;;;;;5083004;28;20028;-79
2021/05/31 04:52:15;;;;;;;54.42;3.20;;;16.20;99.90;;;;;;5074980;28;20073;-78
2021/05/31 04:54:42;;;;;;;41.22;2.20;;;16.30;99.90;;;;;;5081491;28;20393;-79
2021/05/31 04:57:08;;;;;;;44.45;2.72;;;16.30;99.90;;;;;;5081403;28;20027;-79
2021/05/31 04:59:34;;;;;;;27.08;1.90;;;16.40;99.90;;;;;;5083552;28;20016;-79
2021/05/31 05:02:00;;;;;;;39.80;2.53;;;16.30;99.90;;;;;;5082268;28;20046;-79
2021/05/31 05:04:26;;;;;;;25.30;1.85;;;16.40;99.90;;;;;;5078702;28;20073;-79
2021/05/31 05:06:51;;;;;;;27.33;2.20;;;16.30;99.90;;;;;;5078957;28;20033;-79
2021/05/31 05:09:17;;;;;;;34.28;2.30;;;16.40;99.90;;;;;;5089822;28;20381;-79
2021/05/31 05:11:43;;;;;;;36.38;2.13;;;16.40;99.90;;;;;;5088611;28;20032;-79
2021/05/31 05:14:09;;;;;;;11.85;1.80;;;16.30;99.90;;;;;;5086683;28;20408;-78
2021/05/31 05:16:34;;;;;;;11.55;1.45;;;16.30;99.90;;;;;;5090317;28;20031;-79
2021/05/31 05:19:00;;;;;;;8.40;1.70;;;16.40;99.90;;;;;;5091508;28;20186;-79
2021/05/31 05:21:26;;;;;;;11.75;1.52;;;16.40;99.90;;;;;;5085173;28;20040;-79
2021/05/31 05:23:52;;;;;;;18.95;2.30;;;16.60;99.90;;;;;;5074473;28;20594;-79
2021/05/31 05:26:19;;;;;;;24.50;2.10;;;16.60;99.90;;;;;;5072399;28;20107;-79
2021/05/31 05:28:47;;;;;;;21.30;2.47;;;16.60;99.90;;;;;;5084064;28;20381;-79
2021/05/31 05:31:13;;;;;;;26.27;2.10;;;16.50;99.90;;;;;;5081390;28;20029;-79
2021/05/31 05:33:42;;;;;;;23.58;1.80;;;16.60;99.90;;;;;;5075089;28;20074;-79
2021/05/31 05:36:54;;;;;;;27.30;1.88;;;16.60;99.90;;;;;;5080878;28;20056;-79
2021/05/31 05:41:42;;;;;;;17.25;1.95;;;16.60;99.90;;;;;;5093648;28;20130;-79
2021/05/31 05:46:52;;;;;;;12.50;1.77;;;16.70;99.90;;;;;;5074313;28;20032;-79
2021/05/31 05:49:17;;;;;;;14.60;1.70;;;16.80;99.90;;;;;;5072713;28;20028;-79
2021/05/31 05:51:44;;;;;;;19.67;1.70;;;17.00;99.90;;;;;;5073021;28;20060;-79
2021/05/31 05:54:09;;;;;;;49.80;3.17;;;17.00;99.90;;;;;;5073276;28;20024;-79
2021/05/31 05:56:35;;;;;;;5.68;1.50;;;17.00;99.90;;;;;;5085419;28;20579;-79
2021/05/31 05:59:01;;;;;;;13.73;1.48;;;17.00;99.90;;;;;;5093458;28;20016;-79
2021/05/31 06:01:28;;;;;;;15.23;1.90;;;17.20;99.90;;;;;;5091746;28;20146;-79
2021/05/31 06:03:57;;;;;;;7.72;1.70;;;17.10;99.90;;;;;;5093357;28;20099;-79
2021/05/31 06:06:25;;;;;;;1.20;1.10;;;17.10;99.90;;;;;;5093008;28;20024;-79
2021/05/31 06:08:51;;;;;;;2.35;1.40;;;17.10;99.90;;;;;;5082302;28;20444;-79
2021/05/31 06:11:18;;;;;;;4.35;1.58;;;17.10;99.90;;;;;;5082625;28;20029;-79
2021/05/31 06:13:46;;;;;;;5.38;1.25;;;17.30;99.90;;;;;;5080530;28;20154;-79
2021/05/31 06:16:11;;;;;;;5.72;1.80;;;17.30;99.90;;;;;;5080853;28;20485;-79
2021/05/31 06:18:38;;;;;;;3.10;1.73;;;17.30;99.90;;;;;;5080242;28;20027;-79
2021/05/31 06:21:05;;;;;;;1.63;1.52;;;17.50;99.90;;;;;;5080562;28;20020;-79
2021/05/31 06:23:31;;;;;;;4.72;1.50;;;17.60;99.90;;;;;;5079211;28;20016;-79
2021/05/31 06:25:58;;;;;;;2.08;1.98;;;17.60;99.90;;;;;;5081708;28;20073;-79
2021/05/31 06:28:24;;;;;;;3.88;2.58;;;17.70;99.90;;;;;;5079402;28;20563;-79
2021/05/31 06:30:50;;;;;;;2.75;2.55;;;17.90;99.90;;;;;;5078385;28;20077;-79
2021/05/31 06:33:18;;;;;;;5.55;2.63;;;18.00;99.90;;;;;;5079978;28;20024;-79
2021/05/31 06:35:45;;;;;;;3.15;2.95;;;18.20;99.90;;;;;;5079223;28;20016;-79
2021/05/31 06:38:11;;;;;;;3.78;2.83;;;18.40;99.90;;;;;;5083494;28;20020;-79
2021/05/31 06:40:37;;;;;;;7.75;3.63;;;18.40;99.90;;;;;;5084812;28;20375;-79
2021/05/31 06:43:03;;;;;;;6.45;4.00;;;18.50;99.90;;;;;;5080540;28;20020;-79
2021/05/31 06:45:30;;;;;;;5.15;3.03;;;18.60;99.90;;;;;;5080929;28;20059;-79
2021/05/31 06:47:59;;;;;;;4.32;3.17;;;18.60;99.90;;;;;;5092366;28;20020;-80
2021/05/31 06:50:26;;;;;;;4.38;3.08;;;18.70;99.90;;;;;;5092794;28;20024;-79
2021/05/31 06:52:52;;;;;;;4.80;3.63;;;18.80;99.90;;;;;;5082887;28;20028;-79
2021/05/31 06:55:20;;;;;;;3.65;3.28;;;18.90;99.90;;;;;;5073380;28;20157;-79
2021/05/31 06:57:48;;;;;;;9.02;3.13;;;19.00;99.90;;;;;;5073077;28;20020;-79
2021/05/31 07:00:15;;;;;;;5.28;3.10;;;18.90;99.90;;;;;;5073020;28;20032;-79
2021/05/31 07:02:41;;;;;;;3.70;3.22;;;19.10;99.90;;;;;;5076945;28;20016;-79
2021/05/31 07:05:08;;;;;;;3.72;3.10;;;19.20;99.90;;;;;;5092663;28;20738;-79
2021/05/31 07:07:35;;;;;;;3.35;3.05;;;19.30;99.90;;;;;;5093181;28;20031;-80
2021/05/31 07:10:01;;;;;;;3.92;3.25;;;19.30;99.90;;;;;;5093106;28;20085;-79
2021/05/31 07:12:27;;;;;;;4.05;2.95;;;19.30;99.90;;;;;;5093284;28;20020;-80
2021/05/31 07:14:53;;;;;;;5.65;3.05;;;19.30;99.90;;;;;;5093294;28;20107;-79
2021/05/31 07:17:19;;;;;;;2.80;2.60;;;19.30;99.90;;;;;;5092819;28;20380;-79
2021/05/31 07:19:46;;;;;;;3.15;2.90;;;19.30;99.90;;;;;;5072648;28;20107;-80
2021/05/31 07:22:23;;;;;;;4.55;2.75;;;19.40;99.90;;;;;;5082447;28;20019;-79
2021/05/31 07:24:49;;;;;;;3.15;2.85;;;19.50;99.90;;;;;;5090051;28;20032;-79
2021/05/31 07:27:15;;;;;;;3.55;2.50;;;19.50;99.90;;;;;;5092956;28;20024;-80
2021/05/31 07:29:41;;;;;;;7.13;3.25;;;19.70;99.90;;;;;;5092917;28;20078;-80
2021/05/31 07:32:08;;;;;;;4.18;2.85;;;19.80;99.90;;;;;;5092928;28;20393;-80
2021/05/31 07:34:33;;;;;;;3.53;3.05;;;19.70;99.90;;;;;;5092583;28;20020;-80
2021/05/31 07:36:59;;;;;;;2.97;2.67;;;19.90;99.90;;;;;;5092076;28;20042;-79
2021/05/31 07:39:25;;;;;;;8.40;3.88;;;20.00;99.90;;;;;;5091417;28;20469;-79
2021/05/31 07:41:51;;;;;;;5.05;2.55;;;20.20;99.90;;;;;;5092999;28;20213;-79
2021/05/31 07:44:17;;;;;;;3.67;2.72;;;20.20;99.90;;;;;;5091867;28;20051;-79
2021/05/31 07:46:43;;;;;;;5.57;2.53;;;20.00;99.90;;;;;;5090426;28;20016;-79
2021/05/31 07:49:09;;;;;;;5.75;2.30;;;20.00;99.90;;;;;;5091050;28;20046;-79
2021/05/31 07:51:36;;;;;;;2.63;2.22;;;20.10;99.90;;;;;;5091844;28;20024;-79
2021/05/31 07:54:02;;;;;;;6.10;2.35;;;20.20;99.90;;;;;;5091551;28;20035;-79
2021/05/31 07:56:28;;;;;;;5.80;1.90;;;20.20;99.90;;;;;;5091680;28;20025;-79
2021/05/31 07:58:55;;;;;;;3.30;1.50;;;20.00;99.90;;;;;;5091423;28;20024;-79
2021/05/31 08:01:22;;;;;;;2.17;1.88;;;19.80;99.90;;;;;;5091655;28;20366;-79
2021/05/31 08:03:48;;;;;;;1.70;1.48;;;19.70;99.90;;;;;;5091338;28;20035;-79
2021/05/31 08:06:14;;;;;;;3.65;2.03;;;19.20;99.90;;;;;;5091647;28;20095;-79
2021/05/31 08:08:42;;;;;;;3.88;2.20;;;19.40;99.90;;;;;;5091425;28;20087;-79
2021/05/31 08:11:09;;;;;;;3.25;1.92;;;19.60;99.90;;;;;;5091464;28;20070;-79
2021/05/31 08:13:35;;;;;;;1.75;1.60;;;19.60;99.90;;;;;;5090287;28;20401;-79
2021/05/31 08:16:02;;;;;;;5.53;1.85;;;19.60;99.90;;;;;;5091277;28;20091;-79
2021/05/31 08:18:28;;;;;;;2.72;1.83;;;19.90;99.90;;;;;;5094382;28;20071;-79
2021/05/31 08:20:54;;;;;;;3.17;1.40;;;19.60;99.90;;;;;;5095398;28;20019;-79
2021/05/31 08:23:20;;;;;;;1.98;1.80;;;19.70;99.90;;;;;;5095299;28;20107;-79
2021/05/31 08:25:46;;;;;;;4.13;2.13;;;19.90;99.90;;;;;;5095407;28;20519;-79
2021/05/31 08:28:12;;;;;;;2.00;1.90;;;19.80;99.90;;;;;;5094891;28;20066;-79
2021/05/31 08:30:40;;;;;;;1.98;1.88;;;19.80;99.90;;;;;;5095206;28;20479;-79
2021/05/31 08:33:06;;;;;;;2.80;1.95;;;19.90;99.90;;;;;;5095334;28;20056;-79
2021/05/31 08:35:45;;;;;;;1.70;1.60;;;20.10;99.90;;;;;;5094977;28;20115;-79
2021/05/31 08:38:11;;;;;;;2.13;1.80;;;20.10;99.90;;;;;;5081713;28;20032;-79
2021/05/31 08:40:38;;;;;;;7.00;2.10;;;20.10;99.90;;;;;;5074873;28;20103;-79
2021/05/31 08:43:04;;;;;;;3.40;2.00;;;20.30;99.90;;;;;;5074652;28;20044;-79
2021/05/31 08:45:31;;;;;;;4.38;2.10;;;20.30;99.90;;;;;;5074206;28;20049;-79
2021/05/31 08:47:59;;;;;;;4.28;2.05;;;20.60;99.90;;;;;;5074373;28;20035;-79
2021/05/31 08:50:27;;;;;;;1.98;1.80;;;20.70;99.90;;;;;;5074552;28;20028;-79
2021/05/31 08:52:54;;;;;;;2.00;1.80;;;20.90;99.90;;;;;;5074415;28;20068;-79
2021/05/31 08:55:24;;;;;;;2.40;2.03;;;20.80;99.90;;;;;;5074263;28;20025;-79
2021/05/31 08:57:50;;;;;;;4.60;2.17;;;20.80;99.90;;;;;;5074393;28;20036;-79
2021/05/31 09:00:19;;;;;;;2.95;2.42;;;20.80;99.90;;;;;;5073935;28;20025;-79
2021/05/31 09:02:45;;;;;;;3.72;1.98;;;21.00;99.90;;;;;;5074420;28;20086;-79
2021/05/31 09:05:11;;;;;;;2.00;1.90;;;21.20;99.90;;;;;;5074109;28;20060;-79
2021/05/31 09:07:38;;;;;;;2.35;2.08;;;21.40;99.90;;;;;;5074208;28;20035;-79
2021/05/31 09:10:06;;;;;;;2.22;2.05;;;21.60;99.90;;;;;;5074032;28;20027;-79
2021/05/31 09:12:36;;;;;;;2.53;2.10;;;21.80;99.90;;;;;;5074102;28;20573;-79
2021/05/31 09:15:04;;;;;;;2.15;1.95;;;21.90;99.90;;;;;;5073729;28;20028;-79
2021/05/31 09:17:33;;;;;;;2.70;1.80;;;22.30;99.90;;;;;;5074057;28;20028;-79
2021/05/31 09:19:59;;;;;;;4.45;2.83;;;22.30;99.90;;;;;;5074084;28;20596;-79
2021/05/31 09:22:26;;;;;;;3.25;1.95;;;22.50;99.90;;;;;;5072478;28;20115;-79
2021/05/31 09:25:00;;;;;;;3.15;2.40;;;22.50;99.90;;;;;;5073847;28;20043;-79
2021/05/31 09:27:27;;;;;;;2.20;1.92;;;22.80;99.90;;;;;;5073387;28;20556;-79
2021/05/31 09:30:01;;;;;;;2.45;2.17;;;23.00;99.90;;;;;;5073561;28;20554;-79
2021/05/31 09:32:28;;;;;;;2.35;1.88;;;23.20;99.90;;;;;;5073766;28;20413;-79
2021/05/31 09:34:59;;;;;;;3.88;2.00;;;23.30;99.90;;;;;;5073691;28;20032;-79
2021/05/31 09:37:25;;;;;;;2.20;2.00;;;23.30;99.90;;;;;;5073213;28;20404;-79
2021/05/31 09:40:03;;;;;;;1.90;1.80;;;23.40;99.90;;;;;;5073714;28;20070;-79
2021/05/31 09:42:29;;;;;;;2.50;1.75;;;23.50;99.90;;;;;;5073588;28;20507;-79
2021/05/31 09:45:08;;;;;;;2.22;2.08;;;23.80;99.90;;;;;;5073188;28;20060;-79
2021/05/31 09:47:35;;;;;;;3.75;2.70;;;23.90;99.90;;;;;;5072089;28;20032;-78
2021/05/31 09:50:06;;;;;;;2.80;2.22;;;23.90;99.90;;;;;;5073408;28;20078;-78
2021/05/31 09:52:33;;;;;;;2.30;2.05;;;23.90;99.90;;;;;;5073365;28;20028;-79
2021/05/31 09:55:05;;;;;;;3.10;2.00;;;24.20;99.90;;;;;;5073365;28;20024;-79
2021/05/31 09:57:35;;;;;;;2.28;2.08;;;24.40;99.90;;;;;;5073065;28;20052;-79
2021/05/31 10:00:11;;;;;;;3.00;2.05;;;24.50;99.90;;;;;;5072851;28;20048;-79
2021/05/31 10:10:23;;;;;;;3.95;2.05;;;24.90;99.90;;;;;;5072903;28;20036;-78
2021/05/31 10:12:49;;;;;;;4.03;2.15;;;25.00;99.90;;;;;;5072649;28;20037;-79
2021/05/31 10:15:17;;;;;;;2.90;2.67;;;26.60;99.90;;;;;;5072657;28;20024;-79
2021/05/31 10:17:45;;;;;;;2.15;2.05;;;30.10;99.90;;;;;;5072999;28;20025;-79
2021/05/31 10:20:12;;;;;;;2.38;2.28;;;31.70;99.90;;;;;;5072684;28;20104;-79
2021/05/31 10:22:38;;;;;;;3.13;2.92;;;32.70;99.90;;;;;;5072759;28;20021;-79
2021/05/31 10:25:08;;;;;;;2.40;2.00;;;33.00;98.20;;;;;;5072601;28;20036;-79
2021/05/31 10:27:36;;;;;;;2.92;2.33;;;32.60;99.90;;;;;;5072292;28;20021;-79
2021/05/31 10:30:06;;;;;;;3.17;2.38;;;32.60;99.90;;;;;;5072746;28;20063;-79
2021/05/31 10:32:32;;;;;;;2.75;2.38;;;33.00;98.80;;;;;;5072519;28;20029;-79
2021/05/31 10:34:58;;;;;;;3.15;2.85;;;33.20;98.10;;;;;;5072471;28;20486;-79
2021/05/31 10:37:25;;;;;;;4.35;2.45;;;33.70;97.30;;;;;;5072094;28;20397;-79
2021/05/31 10:40:10;;;;;;;3.75;3.40;;;33.80;93.00;;;;;;5070393;28;20063;-79
2021/05/31 10:42:55;;;;;;;3.95;3.17;;;33.90;94.20;;;;;;5071882;28;20029;-79
2021/05/31 10:45:24;;;;;;;3.92;3.58;;;33.60;93.10;;;;;;5071962;28;20040;-79
2021/05/31 10:48:06;;;;;;;2.88;2.50;;;34.00;92.30;;;;;;5072394;28;20099;-79
2021/05/31 10:50:53;;;;;;;2.70;2.50;;;34.20;90.90;;;;;;5072055;28;20029;-79
2021/05/31 10:53:19;;;;;;;2.92;2.70;;;34.10;83.90;;;;;;5072093;28;20020;-79
2021/05/31 10:56:01;;;;;;;3.53;3.30;;;33.90;89.30;;;;;;5072149;28;20089;-79
2021/05/31 10:58:35;;;;;;;3.13;2.85;;;34.80;88.50;;;;;;5071924;28;20108;-79
2021/05/31 11:01:14;;;;;;;3.17;2.70;;;35.50;76.90;;;;;;5072155;28;20024;-80
2021/05/31 11:03:48;;;;;;;9.90;9.30;;;35.50;77.60;;;;;;5072066;28;20128;-80
2021/05/31 11:06:17;;;;;;;3.58;3.22;;;36.70;78.30;;;;;;5072149;28;20036;-80
2021/05/31 11:09:19;;;;;;;6.20;3.20;;;36.20;74.70;;;;;;5072035;28;20031;-80
2021/05/31 11:11:48;;;;;;;2.80;2.63;;;36.10;67.10;;;;;;4990064;28;20054;-80
2021/05/31 11:14:16;;;;;;;4.05;3.33;;;36.20;75.40;;;;;;4990287;28;20046;-80
2021/05/31 11:17:02;;;;;;;3.65;2.80;;;35.80;74.40;;;;;;4990356;28;20073;-80
2021/05/31 11:19:35;;;;;;;13.57;12.48;;;35.00;81.80;;;;;;4990332;28;20026;-80
2021/05/31 11:22:21;;;;;;;4.43;3.78;;;35.80;77.80;;;;;;4990421;28;20039;-80
2021/05/31 11:25:01;;;;;;;4.32;3.28;;;33.30;87.10;;;;;;4990263;28;20104;-80
2021/05/31 11:27:36;;;;;;;6.57;5.97;;;32.80;93.20;;;;;;4990231;28;20101;-80
2021/05/31 11:30:06;;;;;;;3.45;3.20;;;34.10;92.00;;;;;;4990350;28;20041;-80
2021/05/31 11:32:32;;;;;;;9.57;4.90;;;35.00;79.40;;;;;;4990004;28;20077;-80
2021/05/31 11:35:03;;;;;;;4.18;3.85;;;35.10;77.40;;;;;;4990196;28;20034;-80
2021/05/31 11:37:31;;;;;;;10.70;5.68;;;35.60;73.10;;;;;;4984353;28;20077;-80
2021/05/31 11:39:57;;;;;;;3.30;3.10;;;36.50;72.60;;;;;;4970432;28;20389;-80
2021/05/31 11:42:24;;;;;;;2.90;2.70;;;36.40;69.30;;;;;;4970822;28;20039;-80
2021/05/31 11:44:54;;;;;;;7.25;6.65;;;36.10;67.20;;;;;;4970367;28;20055;-80
2021/05/31 11:47:30;;;;;;;55.70;7.90;;;35.90;78.00;;;;;;5024153;28;20066;-80
2021/05/31 11:49:57;;;;;;;8.55;4.97;;;36.90;75.90;;;;;;5071486;28;20025;-80
2021/05/31 11:52:25;;;;;;;18.05;5.32;;;36.80;70.00;;;;;;5074706;28;20032;-80
2021/05/31 11:54:52;;;;;;;12.25;10.18;;;36.40;71.80;;;;;;5073900;28;20025;-80
2021/05/31 11:57:20;;;;;;;4.18;3.78;;;37.70;74.20;;;;;;5075659;28;20059;-80
2021/05/31 11:59:51;;;;;;;6.45;5.95;;;37.10;65.60;;;;;;5075440;28;20016;-81
2021/05/31 12:02:19;;;;;;;8.80;8.07;;;36.90;69.80;;;;;;5075522;28;20036;-81
2021/05/31 12:04:47;;;;;;;4.93;4.47;;;36.80;69.80;;;;;;5075109;28;20028;-81
2021/05/31 12:07:19;;;;;;;34.60;31.33;;;36.90;68.20;;;;;;5074088;28;20032;-81
2021/05/31 12:09:45;;;;;;;4.40;4.00;;;37.30;65.40;;;;;;5074970;28;20033;-81
2021/05/31 12:12:13;;;;;;;4.38;4.07;;;36.60;69.20;;;;;;5075361;28;20440;-81
2021/05/31 12:14:47;;;;;;;5.28;4.80;;;36.60;73.60;;;;;;5075058;28;20508;-81
2021/05/31 12:17:13;;;;;;;6.43;5.93;;;36.30;67.80;;;;;;5075145;28;20023;-81
2021/05/31 12:19:40;;;;;;;3.63;3.42;;;37.40;72.30;;;;;;5074960;28;20503;-81
2021/05/31 12:22:08;;;;;;;5.55;4.20;;;37.70;63.70;;;;;;5075193;28;20095;-81
2021/05/31 12:24:35;;;;;;;5.85;4.13;;;37.60;62.20;;;;;;5074601;28;20017;-81
2021/05/31 12:27:03;;;;;;;4.05;3.75;;;37.30;62.30;;;;;;5075033;28;20029;-81
2021/05/31 12:29:35;;;;;;;5.72;3.70;;;37.80;62.00;;;;;;5074688;28;20074;-81
2021/05/31 12:32:06;;;;;;;4.38;3.97;;;37.60;59.20;;;;;;5074919;28;20061;-81
2021/05/31 12:34:33;;;;;;;5.45;4.95;;;37.40;61.70;;;;;;5074845;28;20059;-81
2021/05/31 12:37:00;;;;;;;4.55;4.15;;;36.70;62.40;;;;;;5076060;28;20112;-81
2021/05/31 12:39:26;;;;;;;4.43;3.90;;;37.00;62.40;;;;;;5094720;28;20099;-81
2021/05/31 12:41:52;;;;;;;3.78;3.50;;;37.90;66.50;;;;;;5094776;28;20108;-81
2021/05/31 12:44:18;;;;;;;4.80;4.05;;;38.60;56.90;;;;;;5094778;28;20071;-81
2021/05/31 12:46:45;;;;;;;4.00;3.70;;;37.60;58.80;;;;;;5093393;28;20059;-81
2021/05/31 12:49:15;;;;;;;3.92;3.63;;;37.40;60.40;;;;;;5094886;28;20024;-81
2021/05/31 12:51:55;;;;;;;3.78;3.40;;;38.30;55.80;;;;;;5094698;28;20020;-81
2021/05/31 12:54:21;;;;;;;4.15;3.78;;;37.50;56.80;;;;;;5094882;28;20028;-81
2021/05/31 12:56:48;;;;;;;3.72;3.38;;;37.00;57.80;;;;;;5094626;28;20082;-81
2021/05/31 12:59:14;;;;;;;4.13;3.75;;;37.00;60.60;;;;;;5094638;28;20098;-81
2021/05/31 13:01:43;;;;;;;3.80;3.60;;;37.70;56.20;;;;;;5094553;28;20413;-81
2021/05/31 13:04:09;;;;;;;3.65;3.45;;;37.60;56.50;;;;;;5093870;28;20027;-81
2021/05/31 13:06:41;;;;;;;4.43;3.85;;;37.60;55.90;;;;;;5094006;28;20103;-81